Time;durP1;ratioP1;P1;durP2;ratioP2;P2;SDS_P1;SDS_P2;PMS_P1;PMS_P2;Temp;Humidity;BMP_temperature;BMP_pressure;BME280_temperature;BME280_humidity;BME280_pressure;Samples;Min_cycle;Max_cycle;Signal;HPM_P1;HPM_P2
2023/04/19 00:00:49;;;;;;;;;30.25;28.75;;;;;14.67;58.09;101432.47;2087959;28;45745;-68
2023/04/19 00:01:49;;;;;;;;;28.40;28.40;;;;;14.67;57.90;101431.59;2095337;28;46314;-68
2023/04/19 00:02:50;;;;;;;;;29.50;28.00;;;;;14.66;57.80;101425.38;2095698;28;46800;-68
2023/04/19 00:03:50;;;;;;;;;33.75;31.00;;;;;14.65;57.71;101426.28;2087313;28;47067;-67
2023/04/19 00:04:51;;;;;;;;;33.25;30.50;;;;;14.65;58.04;101428.09;2086788;28;44971;-68
2023/04/19 00:05:57;;;;;;;;;32.60;30.40;;;;;14.63;57.82;101427.25;2095094;28;45886;-67
2023/04/19 00:06:58;;;;;;;;;31.60;29.20;;;;;14.62;57.86;101428.19;2087440;28;47337;-67
2023/04/19 00:07:58;;;;;;;;;32.50;29.75;;;;;14.62;57.97;101430.84;2087033;28;46849;-68
2023/04/19 00:08:59;;;;;;;;;32.75;29.50;;;;;14.59;57.97;101429.09;2087428;28;46850;-68
2023/04/19 00:09:59;;;;;;;;;31.00;29.00;;;;;14.58;57.91;101427.34;2091943;28;45738;-67
2023/04/19 00:10:59;;;;;;;;;30.75;28.50;;;;;14.58;58.05;101429.16;2096178;28;46539;-68
2023/04/19 00:12:00;;;;;;;;;32.25;30.25;;;;;14.57;58.18;101432.75;2096055;28;46405;-67
2023/04/19 00:13:01;;;;;;;;;30.50;27.25;;;;;14.56;58.13;101428.31;2087016;28;46466;-67
2023/04/19 00:14:01;;;;;;;;;33.25;29.50;;;;;14.56;58.37;101431.88;2078839;28;46438;-69
2023/04/19 00:15:01;;;;;;;;;32.75;30.00;;;;;14.55;58.16;101427.44;2081549;28;46591;-68
2023/04/19 00:16:02;;;;;;;;;33.25;31.00;;;;;14.55;57.88;101430.13;2090217;28;45684;-68
2023/04/19 00:17:02;;;;;;;;;30.75;28.75;;;;;14.55;58.24;101426.56;2086812;28;46556;-68
2023/04/19 00:18:03;;;;;;;;;29.25;28.25;;;;;14.54;58.58;101428.38;2087161;28;45249;-68
2023/04/19 00:19:03;;;;;;;;;30.00;26.25;;;;;14.55;58.16;101432.78;2095636;28;46268;-70
2023/04/19 00:20:04;;;;;;;;;29.75;28.50;;;;;14.55;58.41;101426.56;2100522;28;46005;-68
2023/04/19 00:21:05;;;;;;;;;31.80;29.40;;;;;14.54;57.99;101436.38;2097122;28;46746;-67
2023/04/19 00:22:05;;;;;;;;;35.75;31.25;;;;;14.54;58.42;101435.50;2095549;28;45864;-68
2023/04/19 00:23:06;;;;;;;;;36.75;33.75;;;;;14.54;58.35;101433.72;2095752;28;46557;-68
2023/04/19 00:24:06;;;;;;;;;35.00;31.50;;;;;14.53;58.03;101431.97;2091918;28;46399;-67
2023/04/19 00:25:07;;;;;;;;;31.75;30.50;;;;;14.53;58.55;101439.09;2088796;28;46381;-67
2023/04/19 00:26:07;;;;;;;;;39.50;32.25;;;;;14.51;58.45;101431.13;2088788;28;46878;-67
2023/04/19 00:27:08;;;;;;;;;34.75;32.00;;;;;14.52;58.54;101427.53;2095473;28;46493;-67
2023/04/19 00:28:08;;;;;;;;;33.25;29.75;;;;;14.51;58.68;101431.13;2095462;28;46385;-67
2023/04/19 00:29:09;;;;;;;;;36.00;32.25;;;;;14.52;58.62;101426.66;2096051;28;46805;-67
2023/04/19 00:30:10;;;;;;;;;30.80;29.40;;;;;14.51;58.66;101430.25;2095669;28;45602;-67
2023/04/19 00:31:11;;;;;;;;;38.25;33.00;;;;;14.50;58.42;101428.50;2096343;28;46581;-67
2023/04/19 00:32:11;;;;;;;;;35.50;31.75;;;;;14.49;58.78;101430.31;2095693;28;45884;-68
2023/04/19 00:33:11;;;;;;;;;30.25;28.75;;;;;14.49;58.16;101429.41;2095856;28;46628;-68
2023/04/19 00:34:12;;;;;;;;;38.00;32.25;;;;;14.47;58.18;101428.56;2095335;28;46695;-68
2023/04/19 00:35:13;;;;;;;;;30.50;29.50;;;;;14.46;58.45;101426.81;2098919;28;45826;-68
2023/04/19 00:36:13;;;;;;;;;32.20;31.20;;;;;14.45;58.80;101428.59;2103983;28;45855;-68
2023/04/19 00:37:14;;;;;;;;;34.25;30.25;;;;;14.46;58.64;101426.81;2088949;28;46249;-68
2023/04/19 00:38:14;;;;;;;;;31.00;28.75;;;;;14.45;58.33;101425.94;2087538;28;46268;-68
2023/04/19 00:39:14;;;;;;;;;32.75;31.50;;;;;14.43;58.81;101420.59;2093152;28;46603;-68
2023/04/19 00:40:15;;;;;;;;;32.50;31.00;;;;;14.43;58.99;101430.41;2095731;28;46250;-67
2023/04/19 00:41:15;;;;;;;;;31.50;29.25;;;;;14.41;58.59;101426.91;2095623;28;46371;-69
2023/04/19 00:42:15;;;;;;;;;30.00;28.50;;;;;14.39;58.58;101421.63;2095772;28;46456;-68
2023/04/19 00:43:19;;;;;;;;;31.75;29.50;;;;;14.39;58.51;101426.94;2087264;28;46179;-68
2023/04/19 00:44:19;;;;;;;;;32.60;30.20;;;;;14.38;58.51;101422.53;2088803;28;46302;-68
2023/04/19 00:45:20;;;;;;;;;32.25;30.25;;;;;14.40;58.44;101430.50;2097026;28;45826;-68
2023/04/19 00:46:21;;;;;;;;;31.50;29.50;;;;;14.38;58.79;101422.53;2100261;28;46318;-67
2023/04/19 00:47:22;;;;;;;;;29.80;29.00;;;;;14.37;58.54;101417.22;2096727;28;46747;-67
2023/04/19 00:48:22;;;;;;;;;21.50;21.50;;;;;14.37;58.56;101423.44;2088198;28;45118;-68
2023/04/19 00:49:24;;;;;;;;;28.50;28.50;;;;;14.36;58.68;101424.38;2087503;28;45157;-67
2023/04/19 00:50:25;;;;;;;;;27.80;27.40;;;;;14.34;58.64;101423.50;2092302;28;46440;-68
2023/04/19 00:51:26;;;;;;;;;29.40;28.40;;;;;14.35;58.73;101419.03;2096493;28;46146;-67
2023/04/19 00:52:26;;;;;;;;;29.00;28.00;;;;;14.35;58.72;101427.06;2096400;28;46992;-67
2023/04/19 00:53:26;;;;;;;;;34.00;31.75;;;;;14.33;58.51;101421.75;2090563;28;45211;-68
2023/04/19 00:54:27;;;;;;;;;27.00;26.00;;;;;14.33;58.71;101427.09;2097299;28;46201;-68
2023/04/19 00:55:28;;;;;;;;;30.50;29.00;;;;;14.32;58.36;101425.34;2095057;28;45666;-67
2023/04/19 00:56:28;;;;;;;;;28.25;26.50;;;;;14.33;58.59;101427.09;2091967;28;46639;-67
2023/04/19 00:57:29;;;;;;;;;31.00;29.00;;;;;14.33;58.62;101427.09;2096831;28;46383;-66
2023/04/19 00:58:31;;;;;;;;;28.00;26.25;;;;;14.34;58.39;101426.16;2099707;28;46135;-67
2023/04/19 00:59:33;;;;;;;;;31.00;29.40;;;;;14.33;58.59;101421.75;2096828;28;46767;-67
2023/04/19 01:00:34;;;;;;;;;30.00;29.00;;;;;14.34;58.63;101426.16;2097391;28;45483;-67
2023/04/19 01:01:36;;;;;;;;;30.00;27.60;;;;;14.33;58.75;101424.41;2096779;28;47486;-67
2023/04/19 01:02:37;;;;;;;;;31.00;27.00;;;;;14.33;58.34;101421.75;2088067;28;46886;-66
2023/04/19 01:03:37;;;;;;;;;26.50;26.50;;;;;14.33;58.77;101418.22;2087052;28;46484;-68
2023/04/19 01:04:38;;;;;;;;;23.25;23.25;;;;;14.33;58.45;101423.56;2095846;28;46726;-68
2023/04/19 01:05:38;;;;;;;;;31.75;27.50;;;;;14.32;58.69;101422.69;2088363;28;46293;-67
2023/04/19 01:06:40;;;;;;;;;30.00;26.25;;;;;14.32;58.25;101421.81;2089843;28;47029;-67
2023/04/19 01:07:41;;;;;;;;;23.20;22.40;;;;;14.32;58.51;101419.13;2093399;28;46903;-67
2023/04/19 01:08:42;;;;;;;;;27.60;27.00;;;;;14.31;58.39;101418.25;2097019;28;46958;-68
2023/04/19 01:09:43;;;;;;;;;26.75;26.75;;;;;14.32;58.47;101420.00;2099388;28;46120;-68
2023/04/19 01:10:44;;;;;;;;;24.00;24.00;;;;;14.31;58.58;101420.03;2096936;28;46862;-67
2023/04/19 01:11:44;;;;;;;;;22.25;22.00;;;;;14.30;58.71;101411.16;2097001;28;45711;-70
2023/04/19 01:12:44;;;;;;;;;25.50;24.25;;;;;14.31;58.51;101422.72;2098818;28;46092;-69
2023/04/19 01:13:45;;;;;;;;;26.75;25.50;;;;;14.30;58.66;101419.16;2101886;28;46350;-67
2023/04/19 01:14:45;;;;;;;;;23.75;23.75;;;;;14.30;58.36;101419.16;2088100;28;45570;-67
2023/04/19 01:15:45;;;;;;;;;29.00;24.75;;;;;14.28;58.35;101420.13;2087668;28;46064;-68
2023/04/19 01:16:46;;;;;;;;;26.75;24.25;;;;;14.29;58.61;101413.88;2087467;28;46404;-68
2023/04/19 01:17:47;;;;;;;;;27.00;25.20;;;;;14.28;58.51;101414.78;2088067;28;47124;-67
2023/04/19 01:18:47;;;;;;;;;21.75;21.75;;;;;14.27;58.27;101413.91;2087757;28;46143;-67
2023/04/19 01:19:48;;;;;;;;;28.00;27.25;;;;;14.27;58.54;101413.03;2088009;28;46562;-67
2023/04/19 01:20:48;;;;;;;;;24.00;23.00;;;;;14.25;58.70;101410.41;2097558;28;46351;-66
2023/04/19 01:21:48;;;;;;;;;23.50;23.00;;;;;14.25;58.33;101407.75;2096957;28;46161;-68
2023/04/19 01:22:49;;;;;;;;;24.50;23.00;;;;;14.25;58.66;101412.22;2097724;28;46759;-67
2023/04/19 01:23:49;;;;;;;;;26.00;24.50;;;;;14.24;58.83;101416.69;2097644;28;46204;-67
2023/04/19 01:24:50;;;;;;;;;25.75;23.50;;;;;14.24;58.42;101413.13;2096779;28;46826;-67
2023/04/19 01:25:51;;;;;;;;;24.25;24.00;;;;;14.23;58.53;101420.25;2096803;28;46330;-67
2023/04/19 01:26:51;;;;;;;;;23.50;23.25;;;;;14.24;58.39;101413.13;2097024;28;46910;-67
2023/04/19 01:27:51;;;;;;;;;25.75;25.00;;;;;14.23;58.32;101417.59;2096685;28;46799;-67
2023/04/19 01:28:52;;;;;;;;;24.50;24.25;;;;;14.22;58.40;101420.28;2097242;28;45641;-68
2023/04/19 01:29:52;;;;;;;;;26.00;26.00;;;;;14.22;58.40;101414.94;2096931;28;46329;-66
2023/04/19 01:30:53;;;;;;;;;18.00;15.50;;;;;14.20;58.31;101414.97;2087864;28;46072;-67
2023/04/19 01:31:53;;;;;;;;;21.60;18.60;;;;;14.19;58.74;101412.34;2087742;28;47406;-67
2023/04/19 01:32:54;;;;;;;;;26.25;25.50;;;;;14.19;58.60;101415.03;2095877;28;45890;-69
2023/04/19 01:33:54;;;;;;;;;24.50;22.50;;;;;14.19;58.26;101412.34;2087663;28;46886;-67
2023/04/19 01:34:55;;;;;;;;;23.75;23.75;;;;;14.18;58.42;101407.94;2087809;28;46440;-68
2023/04/19 01:35:55;;;;;;;;;16.50;16.50;;;;;14.17;58.46;101415.06;2096595;28;46526;-67
2023/04/19 01:36:55;;;;;;;;;25.25;23.25;;;;;14.17;58.34;101411.53;2094525;28;46222;-68
2023/04/19 01:37:55;;;;;;;;;26.75;26.75;;;;;14.17;58.43;101411.53;2088429;28;47572;-68
2023/04/19 01:38:56;;;;;;;;;19.25;18.00;;;;;14.17;58.57;101414.19;2089061;28;45924;-67
2023/04/19 01:39:56;;;;;;;;;27.00;24.25;;;;;14.16;58.71;101407.09;2093589;28;45424;-67
2023/04/19 01:40:56;;;;;;;;;12.50;12.50;;;;;14.14;58.80;101416.03;2078965;28;45836;-68
2023/04/19 01:41:57;;;;;;;;;30.00;24.25;;;;;14.14;58.52;101410.69;2092774;28;46193;-69
2023/04/19 01:42:57;;;;;;;;;20.00;20.00;;;;;14.13;58.32;101411.59;2096789;28;46906;-68
2023/04/19 01:43:59;;;;;;;;;26.50;24.75;;;;;14.11;58.52;101409.91;2096997;28;46130;-67
2023/04/19 01:44:59;;;;;;;;;24.80;22.80;;;;;14.11;58.70;101409.91;2096190;28;46529;-66
2023/04/19 01:46:00;;;;;;;;;22.00;22.00;;;;;14.10;58.60;101408.13;2097958;28;46719;-67
2023/04/19 01:47:00;;;;;;;;;25.00;25.00;;;;;14.10;58.58;101405.44;2099323;28;45493;-67
2023/04/19 01:48:03;;;;;;;;;24.75;22.75;;;;;14.08;58.51;101409.94;2096711;28;45719;-67
2023/04/19 01:49:03;;;;;;;;;21.80;21.80;;;;;14.07;58.71;101405.53;2096928;28;46688;-69
2023/04/19 01:50:04;;;;;;;;;29.25;22.75;;;;;14.05;58.87;101410.03;2091843;28;45465;-69
2023/04/19 01:51:05;;;;;;;;;24.40;23.00;;;;;14.03;58.88;101407.41;2088431;28;46671;-68
2023/04/19 01:52:05;;;;;;;;;23.00;22.50;;;;;14.04;58.63;101410.94;2088267;28;46544;-68
2023/04/19 01:53:05;;;;;;;;;22.00;19.75;;;;;14.02;58.82;101411.00;2092087;28;45503;-67
2023/04/19 01:54:06;;;;;;;;;22.75;22.00;;;;;14.02;58.77;101408.31;2096137;28;46658;-67
2023/04/19 01:55:07;;;;;;;;;22.00;21.25;;;;;14.01;58.56;101409.25;2095699;28;46104;-66
2023/04/19 01:56:07;;;;;;;;;25.00;25.00;;;;;14.00;58.59;101409.28;2096633;28;46590;-67
2023/04/19 01:57:07;;;;;;;;;23.00;23.00;;;;;14.00;58.71;101407.50;2097096;28;44960;-67
2023/04/19 01:58:08;;;;;;;;;20.75;20.75;;;;;13.99;58.60;101405.75;2096639;28;44973;-68
2023/04/19 01:59:09;;;;;;;;;24.60;23.00;;;;;13.98;58.73;101409.31;2096683;28;46395;-68
2023/04/19 02:00:10;;;;;;;;;22.50;22.00;;;;;13.98;59.09;101408.44;2089341;28;45651;-68
2023/04/19 02:01:11;;;;;;;;;20.60;20.00;;;;;13.98;58.64;101405.78;2090769;28;46976;-67
2023/04/19 02:02:12;;;;;;;;;23.20;21.40;;;;;13.98;58.84;101408.44;2096534;28;46374;-68
2023/04/19 02:03:12;;;;;;;;;22.25;22.25;;;;;13.96;58.86;101405.78;2096881;28;46437;-67
2023/04/19 02:04:12;;;;;;;;;23.25;22.50;;;;;13.96;58.92;101410.25;2096785;28;45196;-68
2023/04/19 02:05:13;;;;;;;;;22.25;21.00;;;;;13.94;58.59;101402.28;2096573;28;46328;-67
2023/04/19 02:06:13;;;;;;;;;23.50;22.75;;;;;13.94;58.85;101404.09;2096603;28;46771;-67
2023/04/19 02:07:14;;;;;;;;;21.25;20.75;;;;;13.92;58.76;101405.91;2096378;28;46640;-67
2023/04/19 02:08:14;;;;;;;;;21.00;20.75;;;;;13.91;58.72;101399.69;2096395;28;46947;-67
2023/04/19 02:09:14;;;;;;;;;24.25;22.50;;;;;13.90;58.48;101405.97;2097013;28;45881;-69
2023/04/19 02:10:15;;;;;;;;;22.75;22.00;;;;;13.88;58.56;101399.78;2087744;28;46021;-67
2023/04/19 02:11:15;;;;;;;;;23.50;22.25;;;;;13.87;58.52;101406.03;2087881;28;45735;-67
2023/04/19 02:12:15;;;;;;;;;22.00;21.00;;;;;13.86;58.86;101406.09;2096419;28;46236;-68
2023/04/19 02:13:16;;;;;;;;;19.50;19.50;;;;;13.84;58.71;101403.41;2087190;28;46250;-67
2023/04/19 02:14:16;;;;;;;;;20.00;20.00;;;;;13.82;58.80;101399.91;2087569;28;46246;-67
2023/04/19 02:15:16;;;;;;;;;20.25;20.25;;;;;13.81;58.86;101401.72;2097489;28;46283;-67
2023/04/19 02:16:17;;;;;;;;;23.25;22.50;;;;;13.81;58.60;101401.72;2096322;28;46123;-67
2023/04/19 02:17:17;;;;;;;;;22.50;21.25;;;;;13.81;58.65;101400.84;2101650;28;46270;-67
2023/04/19 02:18:17;;;;;;;;;23.75;23.25;;;;;13.80;58.69;101402.63;2099291;28;47154;-67
2023/04/19 02:19:18;;;;;;;;;23.50;22.25;;;;;13.79;58.95;101403.53;2099387;28;45894;-67
2023/04/19 02:20:18;;;;;;;;;22.50;20.75;;;;;13.77;58.81;101404.50;2096324;28;46223;-67
2023/04/19 02:21:18;;;;;;;;;20.50;17.50;;;;;13.76;59.06;101402.75;2095044;28;46285;-67
2023/04/19 02:22:19;;;;;;;;;25.50;23.00;;;;;13.74;58.96;101408.13;2087583;28;45139;-67
2023/04/19 02:23:20;;;;;;;;;19.00;19.00;;;;;13.74;58.79;101401.91;2096255;28;46609;-68
2023/04/19 02:24:20;;;;;;;;;21.00;19.75;;;;;13.73;59.07;101400.16;2096822;28;45794;-68
2023/04/19 02:25:20;;;;;;;;;21.00;19.25;;;;;13.73;59.09;101401.03;2094591;28;45564;-68
2023/04/19 02:26:23;;;;;;;;;25.50;24.75;;;;;13.73;59.25;101397.50;2087431;28;46716;-68
2023/04/19 02:27:23;;;;;;;;;21.80;20.00;;;;;13.73;58.75;101403.72;2087558;28;45915;-68
2023/04/19 02:28:24;;;;;;;;;22.50;21.50;;;;;13.73;58.87;101403.72;2096440;28;46326;-68
2023/04/19 02:29:24;;;;;;;;;21.25;21.00;;;;;13.73;59.04;101402.81;2096413;28;45535;-67
2023/04/19 02:30:24;;;;;;;;;25.50;23.25;;;;;13.74;59.05;101399.25;2096498;28;46457;-67
2023/04/19 02:31:25;;;;;;;;;24.50;23.00;;;;;13.72;59.17;101401.94;2087535;28;46381;-70
2023/04/19 02:32:25;;;;;;;;;19.25;18.50;;;;;13.72;59.25;101406.38;2087477;28;46935;-67
2023/04/19 02:33:27;;;;;;;;;16.50;16.50;;;;;13.71;59.02;101402.84;2096115;28;45893;-68
2023/04/19 02:34:27;;;;;;;;;26.40;24.80;;;;;13.73;59.33;101400.16;2096819;28;46565;-67
2023/04/19 02:35:28;;;;;;;;;25.75;24.25;;;;;13.72;59.19;101396.63;2096482;28;46756;-68
2023/04/19 02:36:28;;;;;;;;;23.50;23.50;;;;;13.72;59.14;101404.63;2096070;28;45842;-67
2023/04/19 02:37:28;;;;;;;;;22.25;21.75;;;;;13.70;59.13;101395.75;2096500;28;46046;-67
2023/04/19 02:38:29;;;;;;;;;24.50;23.75;;;;;13.71;59.37;101401.97;2096619;28;46463;-68
2023/04/19 02:39:29;;;;;;;;;23.00;22.25;;;;;13.68;59.29;101397.59;2096166;28;45833;-68
2023/04/19 02:40:30;;;;;;;;;23.00;22.50;;;;;13.68;58.96;101397.59;2091089;28;47896;-69
2023/04/19 02:41:30;;;;;;;;;26.75;24.25;;;;;13.68;59.24;101392.25;2096618;28;46101;-67
2023/04/19 02:42:30;;;;;;;;;20.00;20.00;;;;;13.68;59.07;101394.91;2096699;28;46408;-68
2023/04/19 02:43:31;;;;;;;;;23.25;21.50;;;;;13.67;59.02;101398.50;2096422;28;45471;-67
2023/04/19 02:44:31;;;;;;;;;22.25;22.25;;;;;13.67;59.33;101395.81;2096628;28;46759;-67
2023/04/19 02:45:31;;;;;;;;;23.00;22.25;;;;;13.67;59.11;101394.94;2096306;28;45648;-67
2023/04/19 02:46:32;;;;;;;;;28.75;24.50;;;;;13.67;59.22;101386.94;2097482;28;46581;-67
2023/04/19 02:47:32;;;;;;;;;27.25;24.50;;;;;13.67;58.97;101392.28;2096018;28;46739;-68
2023/04/19 02:48:32;;;;;;;;;23.75;22.75;;;;;13.65;59.42;101389.66;2096509;28;46353;-68
2023/04/19 02:49:35;;;;;;;;;23.50;23.50;;;;;13.65;59.10;101400.31;2097844;28;45883;-67
2023/04/19 02:50:37;;;;;;;;;22.20;22.00;;;;;13.64;59.07;101400.38;2104902;28;45573;-68
2023/04/19 02:51:37;;;;;;;;;25.00;24.40;;;;;13.62;59.13;101395.06;2098297;28;46880;-69
2023/04/19 02:52:38;;;;;;;;;23.75;21.25;;;;;13.62;59.13;101399.53;2096781;28;46817;-69
2023/04/19 02:53:38;;;;;;;;;24.00;22.75;;;;;13.59;59.30;101396.91;2096322;28;46370;-67
2023/04/19 02:54:39;;;;;;;;;24.50;23.25;;;;;13.58;59.33;101397.81;2096657;28;45814;-67
2023/04/19 02:55:39;;;;;;;;;28.25;27.25;;;;;13.56;59.29;101392.53;2086548;28;45766;-67
2023/04/19 02:56:40;;;;;;;;;26.00;25.25;;;;;13.54;59.25;101389.91;2084388;28;46351;-67
2023/04/19 02:57:40;;;;;;;;;23.00;21.25;;;;;13.54;59.22;101392.56;2092779;28;46561;-68
2023/04/19 02:58:40;;;;;;;;;24.50;24.00;;;;;13.54;59.25;101397.03;2104735;28;46811;-67
2023/04/19 02:59:40;;;;;;;;;23.25;20.50;;;;;13.53;59.30;101390.81;2098398;28;45837;-69
2023/04/19 03:00:41;;;;;;;;;22.00;20.75;;;;;13.53;59.37;101398.81;2096106;28;46218;-68
2023/04/19 03:01:41;;;;;;;;;21.50;20.50;;;;;13.53;59.30;101397.94;2096085;28;46442;-68
2023/04/19 03:02:42;;;;;;;;;23.25;21.75;;;;;13.52;59.69;101394.41;2095956;28;46203;-68
2023/04/19 03:03:43;;;;;;;;;24.20;22.00;;;;;13.53;59.32;101400.63;2096632;28;45567;-68
2023/04/19 03:04:43;;;;;;;;;19.50;18.75;;;;;13.53;59.48;101401.50;2096283;28;45590;-67
2023/04/19 03:05:44;;;;;;;;;21.25;21.25;;;;;13.54;59.45;101405.03;2095757;28;46019;-68
2023/04/19 03:06:44;;;;;;;;;21.00;18.25;;;;;13.53;59.29;101396.16;2087433;28;46116;-66
2023/04/19 03:07:44;;;;;;;;;27.75;26.75;;;;;13.54;59.42;101405.03;2087068;28;46701;-67
2023/04/19 03:08:45;;;;;;;;;32.75;29.50;;;;;13.54;59.53;101400.56;2096123;28;46274;-69
2023/04/19 03:09:45;;;;;;;;;25.00;23.75;;;;;13.54;59.50;101399.69;2103125;28;46799;-68
2023/04/19 03:10:46;;;;;;;;;24.75;22.50;;;;;13.54;59.34;101399.69;2104486;28;45919;-67
2023/04/19 03:11:46;;;;;;;;;23.25;23.25;;;;;13.55;59.41;101404.13;2104728;28;46761;-67
2023/04/19 03:12:46;;;;;;;;;19.00;18.00;;;;;13.54;59.10;101400.56;2092647;28;45918;-68
2023/04/19 03:13:47;;;;;;;;;22.25;21.50;;;;;13.55;59.40;101401.44;2093195;28;46236;-66
2023/04/19 03:14:48;;;;;;;;;21.50;19.25;;;;;13.54;59.21;101399.69;2087136;28;46087;-68
2023/04/19 03:15:48;;;;;;;;;21.20;19.20;;;;;13.53;59.27;101404.16;2096268;28;45897;-67
2023/04/19 03:16:49;;;;;;;;;24.50;21.50;;;;;13.52;59.29;101402.41;2096156;28;46567;-67
2023/04/19 03:17:49;;;;;;;;;17.25;15.25;;;;;13.52;59.30;101399.72;2096034;28;46300;-67
2023/04/19 03:18:50;;;;;;;;;22.25;20.25;;;;;13.52;59.30;101402.41;2096388;28;46271;-67
2023/04/19 03:19:51;;;;;;;;;20.25;20.00;;;;;13.51;59.44;101399.78;2095966;28;46092;-68
2023/04/19 03:20:51;;;;;;;;;24.60;21.60;;;;;13.51;59.47;101397.97;2102980;28;46523;-68
2023/04/19 03:21:51;;;;;;;;;21.75;19.50;;;;;13.51;59.34;101397.09;2101393;28;46118;-67
2023/04/19 03:22:52;;;;;;;;;21.75;20.00;;;;;13.52;59.28;101399.72;2095592;28;46229;-68
2023/04/19 03:23:53;;;;;;;;;22.50;22.00;;;;;13.52;59.53;101399.72;2095062;28;46591;-68
2023/04/19 03:24:54;;;;;;;;;20.80;19.20;;;;;13.52;59.48;101401.53;2095871;28;45837;-68
2023/04/19 03:25:56;;;;;;;;;23.00;21.20;;;;;13.51;59.55;101403.31;2091469;28;46765;-68
2023/04/19 03:26:56;;;;;;;;;23.00;21.80;;;;;13.50;59.49;101401.56;2095998;28;46688;-68
2023/04/19 03:27:57;;;;;;;;;20.75;20.75;;;;;13.50;59.37;101404.22;2095870;28;46557;-67
2023/04/19 03:28:57;;;;;;;;;20.25;20.25;;;;;13.50;59.40;101396.22;2095711;28;46601;-67
2023/04/19 03:29:57;;;;;;;;;20.50;18.75;;;;;13.51;59.24;101402.44;2095898;28;46653;-66
2023/04/19 03:30:58;;;;;;;;;20.75;20.75;;;;;13.49;59.34;101405.16;2096313;28;45930;-67
2023/04/19 03:31:58;;;;;;;;;19.00;18.25;;;;;13.50;59.24;101400.69;2096052;28;45977;-67
2023/04/19 03:32:59;;;;;;;;;19.75;18.00;;;;;13.50;59.26;101403.34;2096146;28;46603;-68
2023/04/19 03:34:00;;;;;;;;;20.20;20.20;;;;;13.50;59.51;101398.03;2086378;28;46553;-68
2023/04/19 03:35:00;;;;;;;;;23.00;22.75;;;;;13.49;59.40;101406.94;2086870;28;46574;-66
2023/04/19 03:36:00;;;;;;;;;19.75;19.75;;;;;13.48;59.34;101398.06;2095881;28;46413;-67
2023/04/19 03:37:01;;;;;;;;;22.00;21.00;;;;;13.48;59.21;101408.72;2096160;28;46480;-70
2023/04/19 03:38:01;;;;;;;;;24.75;22.75;;;;;13.48;59.43;101399.84;2095948;28;46385;-68
2023/04/19 03:39:02;;;;;;;;;22.50;22.50;;;;;13.47;59.29;101400.75;2096120;28;46157;-67
2023/04/19 03:40:03;;;;;;;;;22.20;20.40;;;;;13.47;59.33;101401.66;2095925;28;46769;-67
2023/04/19 03:41:04;;;;;;;;;20.25;19.50;;;;;13.47;59.25;101398.97;2095784;28;45618;-67
2023/04/19 03:42:04;;;;;;;;;18.25;17.00;;;;;13.46;59.40;101399.84;2095988;28;46424;-68
2023/04/19 03:43:04;;;;;;;;;20.00;20.00;;;;;13.46;59.46;101399.84;2095448;28;46752;-67
2023/04/19 03:44:05;;;;;;;;;20.75;20.75;;;;;13.47;59.41;101398.09;2095124;28;46888;-67
2023/04/19 03:45:05;;;;;;;;;21.00;19.75;;;;;13.45;59.28;101400.78;2095958;28;46649;-67
2023/04/19 03:46:06;;;;;;;;;19.00;18.75;;;;;13.46;59.51;101396.31;2095915;28;46276;-68
2023/04/19 03:47:06;;;;;;;;;24.00;22.50;;;;;13.46;59.24;101393.66;2095945;28;46335;-66
2023/04/19 03:48:06;;;;;;;;;23.50;22.50;;;;;13.46;59.33;101399.84;2096081;28;46665;-66
2023/04/19 03:49:07;;;;;;;;;25.50;20.00;;;;;13.46;59.60;101398.97;2096180;28;46447;-67
2023/04/19 03:50:08;;;;;;;;;23.50;23.50;;;;;13.46;59.50;101399.84;2095860;28;46376;-68
2023/04/19 03:51:08;;;;;;;;;20.80;20.00;;;;;13.46;59.50;101396.31;2096375;28;46954;-67
2023/04/19 03:52:09;;;;;;;;;19.25;18.00;;;;;13.44;59.53;101399.03;2095740;28;46659;-67
2023/04/19 03:53:09;;;;;;;;;23.75;22.25;;;;;13.43;59.33;101391.94;2096109;28;46525;-68
2023/04/19 03:54:10;;;;;;;;;20.75;18.75;;;;;13.42;59.62;101398.19;2083886;28;46666;-67
2023/04/19 03:55:11;;;;;;;;;20.60;20.00;;;;;13.43;59.28;101393.72;2080576;28;46955;-66
2023/04/19 03:56:11;;;;;;;;;21.00;21.00;;;;;13.41;59.32;101396.44;2089239;28;46808;-68
2023/04/19 03:57:14;;;;;;;;;20.75;20.75;;;;;13.41;59.59;101392.88;2096298;28;46683;-68
2023/04/19 03:58:15;;;;;;;;;23.60;20.40;;;;;13.42;59.39;101397.31;2095915;28;45793;-68
2023/04/19 03:59:15;;;;;;;;;23.00;22.00;;;;;13.40;59.50;101392.00;2096021;28;46478;-67
2023/04/19 04:00:16;;;;;;;;;21.50;19.75;;;;;13.40;59.64;101401.81;2095878;28;46244;-68
2023/04/19 04:01:20;;;;;;;;;21.00;20.50;;;;;13.40;59.49;101399.13;2095963;28;45574;-66
2023/04/19 04:02:20;;;;;;;;;21.40;20.60;;;;;13.40;59.47;101393.81;2096215;28;45738;-67
2023/04/19 04:03:20;;;;;;;;;23.00;21.75;;;;;13.39;59.40;101403.59;2095672;28;46393;-67
2023/04/19 04:04:21;;;;;;;;;20.25;20.00;;;;;13.39;59.32;101386.72;2096087;28;46689;-67
2023/04/19 04:05:21;;;;;;;;;21.00;20.00;;;;;13.38;59.44;101396.50;2090265;28;46853;-67
2023/04/19 04:06:22;;;;;;;;;20.25;19.50;;;;;13.38;59.51;101398.31;2087263;28;46349;-68
2023/04/19 04:07:23;;;;;;;;;20.75;20.75;;;;;13.36;59.31;101398.34;2087642;28;46288;-68
2023/04/19 04:08:23;;;;;;;;;23.20;21.60;;;;;13.34;59.55;101393.94;2090871;28;46313;-68
2023/04/19 04:09:24;;;;;;;;;19.00;19.00;;;;;13.34;59.51;101396.59;2094951;28;46160;-68
2023/04/19 04:10:24;;;;;;;;;20.50;18.75;;;;;13.33;59.56;101394.84;2090507;28;46773;-67
2023/04/19 04:11:24;;;;;;;;;21.00;19.75;;;;;13.32;59.68;101393.97;2089973;28;46617;-67
2023/04/19 04:12:25;;;;;;;;;19.75;18.75;;;;;13.31;59.72;101394.00;2096132;28;45773;-66
2023/04/19 04:13:25;;;;;;;;;24.75;23.50;;;;;13.30;59.48;101390.47;2096139;28;45632;-67
2023/04/19 04:14:25;;;;;;;;;21.75;19.25;;;;;13.29;59.54;101396.69;2095624;28;45689;-66
2023/04/19 04:15:26;;;;;;;;;21.00;19.75;;;;;13.28;59.62;101394.94;2095765;28;45542;-68
2023/04/19 04:16:26;;;;;;;;;15.00;13.25;;;;;13.28;59.54;101388.75;2096258;28;45687;-67
2023/04/19 04:17:27;;;;;;;;;18.75;18.75;;;;;13.27;59.65;101381.66;2096114;28;45566;-68
2023/04/19 04:18:27;;;;;;;;;23.50;22.50;;;;;13.27;59.71;101392.31;2096856;28;46406;-67
2023/04/19 04:19:27;;;;;;;;;20.75;20.75;;;;;13.25;59.47;101395.03;2097514;28;46344;-68
2023/04/19 04:20:28;;;;;;;;;21.25;18.50;;;;;13.24;59.71;101391.50;2097031;28;46639;-66
2023/04/19 04:21:28;;;;;;;;;25.50;25.25;;;;;13.25;59.40;101403.91;2071141;28;45023;-67
2023/04/19 04:22:28;;;;;;;;;25.75;25.75;;;;;13.24;59.56;101395.94;2063704;28;45041;-68
2023/04/19 04:23:29;;;;;;;;;24.50;23.25;;;;;13.23;59.59;101403.06;2087947;28;46639;-68
2023/04/19 04:24:31;;;;;;;;;23.25;22.75;;;;;13.23;59.71;101391.53;2097168;28;48372;-67
2023/04/19 04:25:36;;;;;;;;;22.60;22.00;;;;;13.23;59.67;101391.53;2088259;28;46357;-67
2023/04/19 04:26:38;;;;;;;;;22.20;21.00;;;;;13.23;59.62;101396.84;2089531;28;45333;-67
2023/04/19 04:27:38;;;;;;;;;25.40;22.60;;;;;13.21;59.61;101395.97;2096918;28;46799;-67
2023/04/19 04:28:38;;;;;;;;;22.50;22.50;;;;;13.21;59.63;101395.97;2101240;28;47198;-67
2023/04/19 04:29:40;;;;;;;;;22.75;20.75;;;;;13.21;59.63;101398.66;2099062;28;46519;-67
2023/04/19 04:30:40;;;;;;;;;23.00;21.00;;;;;13.20;59.55;101397.78;2097667;28;46059;-67
2023/04/19 04:31:41;;;;;;;;;22.50;21.75;;;;;13.20;59.77;101399.56;2097130;28;46818;-67
2023/04/19 04:32:42;;;;;;;;;20.75;18.00;;;;;13.18;59.80;101396.94;2096908;28;46757;-67
2023/04/19 04:33:43;;;;;;;;;23.40;23.40;;;;;13.18;59.76;101396.03;2097472;28;46338;-67
2023/04/19 04:34:43;;;;;;;;;22.20;20.00;;;;;13.18;59.71;101401.34;2102876;28;47563;-67
2023/04/19 04:35:43;;;;;;;;;21.50;21.50;;;;;13.15;59.69;101391.66;2102248;28;46240;-67